sensor_id;sensor_type;location;lat;lon;timestamp;temperature;humidity
56268;DHT22;42175;46.930;9.532;2023-01-10T06:56:26;22.30;34.00
56268;DHT22;42175;46.930;9.532;2023-01-10T06:58:52;21.70;35.70
56268;DHT22;42175;46.930;9.532;2023-01-10T07:01:19;21.80;38.10
56268;DHT22;42175;46.930;9.532;2023-01-10T07:03:46;21.90;39.20
56268;DHT22;42175;46.930;9.532;2023-01-10T07:06:12;22.00;40.10
56268;DHT22;42175;46.930;9.532;2023-01-10T07:08:40;22.00;40.70
56268;DHT22;42175;46.930;9.532;2023-01-10T07:11:07;22.10;40.80
56268;DHT22;42175;46.930;9.532;2023-01-10T07:13:33;22.10;40.90
56268;DHT22;42175;46.930;9.532;2023-01-10T07:16:02;22.20;40.90
56268;DHT22;42175;46.930;9.532;2023-01-10T07:18:28;22.20;40.90
56268;DHT22;42175;46.930;9.532;2023-01-10T07:20:54;22.20;41.00
56268;DHT22;42175;46.930;9.532;2023-01-10T07:23:20;22.30;41.10
56268;DHT22;42175;46.930;9.532;2023-01-10T07:25:45;22.30;41.00
56268;DHT22;42175;46.930;9.532;2023-01-10T07:28:11;22.30;41.00
56268;DHT22;42175;46.930;9.532;2023-01-10T07:30:37;22.30;41.20
56268;DHT22;42175;46.930;9.532;2023-01-10T07:33:02;22.30;41.00
56268;DHT22;42175;46.930;9.532;2023-01-10T07:35:28;22.30;40.90
56268;DHT22;42175;46.930;9.532;2023-01-10T07:37:57;22.30;41.60
56268;DHT22;42175;46.930;9.532;2023-01-10T07:40:24;22.30;40.80
56268;DHT22;42175;46.930;9.532;2023-01-10T07:42:59;22.30;40.70
56268;DHT22;42175;46.930;9.532;2023-01-10T07:45:27;22.30;40.80
56268;DHT22;42175;46.930;9.532;2023-01-10T07:48:01;22.40;40.70
56268;DHT22;42175;46.930;9.532;2023-01-10T07:50:28;22.40;40.80
56268;DHT22;42175;46.930;9.532;2023-01-10T07:52:54;22.40;40.80
56268;DHT22;42175;46.930;9.532;2023-01-10T07:55:21;22.40;40.80
56268;DHT22;42175;46.930;9.532;2023-01-10T07:57:47;22.40;40.70
56268;DHT22;42175;46.930;9.532;2023-01-10T08:00:14;22.40;40.80
56268;DHT22;42175;46.930;9.532;2023-01-10T08:02:40;22.40;40.80
56268;DHT22;42175;46.930;9.532;2023-01-10T08:05:06;22.40;40.80
56268;DHT22;42175;46.930;9.532;2023-01-10T08:07:32;22.40;40.60
56268;DHT22;42175;46.930;9.532;2023-01-10T08:09:58;22.40;40.40
56268;DHT22;42175;46.930;9.532;2023-01-10T08:12:24;22.50;40.30
56268;DHT22;42175;46.930;9.532;2023-01-10T08:14:50;22.50;40.10
56268;DHT22;42175;46.930;9.532;2023-01-10T08:17:18;22.50;39.60
56268;DHT22;42175;46.930;9.532;2023-01-10T08:19:44;22.40;39.60
56268;DHT22;42175;46.930;9.532;2023-01-10T08:22:10;22.40;39.40
56268;DHT22;42175;46.930;9.532;2023-01-10T08:24:36;22.50;39.30
56268;DHT22;42175;46.930;9.532;2023-01-10T08:27:01;22.50;39.00
56268;DHT22;42175;46.930;9.532;2023-01-10T08:29:28;22.50;38.80
56268;DHT22;42175;46.930;9.532;2023-01-10T08:31:53;22.50;39.00
56268;DHT22;42175;46.930;9.532;2023-01-10T08:34:19;22.50;38.60
56268;DHT22;42175;46.930;9.532;2023-01-10T08:36:48;22.50;38.20
56268;DHT22;42175;46.930;9.532;2023-01-10T08:39:14;22.50;38.20
56268;DHT22;42175;46.930;9.532;2023-01-10T08:41:39;22.50;38.20
56268;DHT22;42175;46.930;9.532;2023-01-10T08:44:05;22.50;38.20
56268;DHT22;42175;46.930;9.532;2023-01-10T08:46:31;22.50;38.30
56268;DHT22;42175;46.930;9.532;2023-01-10T08:48:57;22.50;37.60
56268;DHT22;42175;46.930;9.532;2023-01-10T08:51:22;22.50;37.80
56268;DHT22;42175;46.930;9.532;2023-01-10T08:53:48;22.50;38.00
56268;DHT22;42175;46.930;9.532;2023-01-10T08:56:14;22.50;37.90
56268;DHT22;42175;46.930;9.532;2023-01-10T08:58:39;22.50;37.70
56268;DHT22;42175;46.930;9.532;2023-01-10T09:01:09;22.50;37.40
56268;DHT22;42175;46.930;9.532;2023-01-10T09:03:36;22.50;37.50
56268;DHT22;42175;46.930;9.532;2023-01-10T09:06:02;22.50;37.20
56268;DHT22;42175;46.930;9.532;2023-01-10T09:08:27;22.50;37.10
56268;DHT22;42175;46.930;9.532;2023-01-10T09:10:53;22.50;36.70
56268;DHT22;42175;46.930;9.532;2023-01-10T09:13:19;22.50;36.70
56268;DHT22;42175;46.930;9.532;2023-01-10T09:15:45;22.50;36.60
56268;DHT22;42175;46.930;9.532;2023-01-10T09:18:12;22.50;36.50
56268;DHT22;42175;46.930;9.532;2023-01-10T09:20:40;22.50;36.40
56268;DHT22;42175;46.930;9.532;2023-01-10T09:23:12;22.50;36.40
56268;DHT22;42175;46.930;9.532;2023-01-10T09:25:46;22.50;37.00
56268;DHT22;42175;46.930;9.532;2023-01-10T09:28:12;22.50;37.40
56268;DHT22;42175;46.930;9.532;2023-01-10T09:30:39;22.50;37.40
56268;DHT22;42175;46.930;9.532;2023-01-10T09:33:05;22.50;37.30
56268;DHT22;42175;46.930;9.532;2023-01-10T09:35:33;22.50;37.20
56268;DHT22;42175;46.930;9.532;2023-01-10T09:38:01;22.60;37.30
56268;DHT22;42175;46.930;9.532;2023-01-10T09:45:59;22.60;37.30
56268;DHT22;42175;46.930;9.532;2023-01-10T09:48:54;22.60;37.30
56268;DHT22;42175;46.930;9.532;2023-01-10T09:53:57;22.60;37.70
56268;DHT22;42175;46.930;9.532;2023-01-10T09:56:25;22.60;37.80
56268;DHT22;42175;46.930;9.532;2023-01-10T09:58:52;22.60;37.90
56268;DHT22;42175;46.930;9.532;2023-01-10T10:01:22;22.60;38.20
56268;DHT22;42175;46.930;9.532;2023-01-10T10:06:21;22.60;38.80
56268;DHT22;42175;46.930;9.532;2023-01-10T10:08:48;22.60;39.40
56268;DHT22;42175;46.930;9.532;2023-01-10T10:29:58;22.70;38.90
56268;DHT22;42175;46.930;9.532;2023-01-10T10:35:06;22.60;38.90
56268;DHT22;42175;46.930;9.532;2023-01-10T10:37:35;22.60;39.10
56268;DHT22;42175;46.930;9.532;2023-01-10T10:40:06;22.70;39.30
56268;DHT22;42175;46.930;9.532;2023-01-10T10:42:39;22.70;39.20
56268;DHT22;42175;46.930;9.532;2023-01-10T10:45:14;22.60;39.10
56268;DHT22;42175;46.930;9.532;2023-01-10T10:47:45;22.70;39.10
56268;DHT22;42175;46.930;9.532;2023-01-10T10:50:17;22.70;39.10
56268;DHT22;42175;46.930;9.532;2023-01-10T10:52:46;22.70;39.10
56268;DHT22;42175;46.930;9.532;2023-01-10T10:55:16;22.70;39.30
56268;DHT22;42175;46.930;9.532;2023-01-10T10:57:44;22.70;39.20
56268;DHT22;42175;46.930;9.532;2023-01-10T11:00:16;22.70;39.10
56268;DHT22;42175;46.930;9.532;2023-01-10T11:05:42;22.70;39.10
56268;DHT22;42175;46.930;9.532;2023-01-10T11:08:10;22.70;39.00
56268;DHT22;42175;46.930;9.532;2023-01-10T11:10:56;22.70;38.70
56268;DHT22;42175;46.930;9.532;2023-01-10T11:15:57;22.70;38.60
56268;DHT22;42175;46.930;9.532;2023-01-10T11:18:28;22.70;38.30
56268;DHT22;42175;46.930;9.532;2023-01-10T11:21:05;22.70;38.30
56268;DHT22;42175;46.930;9.532;2023-01-10T11:26:21;22.70;38.60
56268;DHT22;42175;46.930;9.532;2023-01-10T11:28:50;22.70;38.50
56268;DHT22;42175;46.930;9.532;2023-01-10T11:31:26;22.70;38.50
56268;DHT22;42175;46.930;9.532;2023-01-10T11:33:52;22.70;38.60
56268;DHT22;42175;46.930;9.532;2023-01-10T11:36:18;22.80;38.40
56268;DHT22;42175;46.930;9.532;2023-01-10T11:38:59;22.80;38.10
56268;DHT22;42175;46.930;9.532;2023-01-10T11:41:26;22.80;38.40
56268;DHT22;42175;46.930;9.532;2023-01-10T11:44:17;22.80;38.40
56268;DHT22;42175;46.930;9.532;2023-01-10T11:46:46;22.80;38.60
56268;DHT22;42175;46.930;9.532;2023-01-10T11:49:17;22.80;38.60
56268;DHT22;42175;46.930;9.532;2023-01-10T11:51:48;22.80;38.60
56268;DHT22;42175;46.930;9.532;2023-01-10T11:54:25;22.80;38.40
56268;DHT22;42175;46.930;9.532;2023-01-10T11:59:26;22.80;38.60
56268;DHT22;42175;46.930;9.532;2023-01-10T12:02:02;22.80;38.40
56268;DHT22;42175;46.930;9.532;2023-01-10T12:04:33;22.70;31.90
56268;DHT22;42175;46.930;9.532;2023-01-10T12:07:08;22.40;33.90
56268;DHT22;42175;46.930;9.532;2023-01-10T12:09:42;22.50;36.70
56268;DHT22;42175;46.930;9.532;2023-01-10T12:12:26;22.60;37.20
56268;DHT22;42175;46.930;9.532;2023-01-10T12:14:54;22.60;37.30
56268;DHT22;42175;46.930;9.532;2023-01-10T12:17:26;22.60;37.30
56268;DHT22;42175;46.930;9.532;2023-01-10T12:19:54;22.70;37.40
56268;DHT22;42175;46.930;9.532;2023-01-10T12:23:04;22.60;37.30
56268;DHT22;42175;46.930;9.532;2023-01-10T12:25:37;22.70;37.30
56268;DHT22;42175;46.930;9.532;2023-01-10T12:28:03;22.70;37.20
56268;DHT22;42175;46.930;9.532;2023-01-10T12:30:41;22.70;37.20
56268;DHT22;42175;46.930;9.532;2023-01-10T12:33:13;22.70;37.20
56268;DHT22;42175;46.930;9.532;2023-01-10T12:35:51;22.70;37.30
56268;DHT22;42175;46.930;9.532;2023-01-10T12:41:08;22.70;37.60
56268;DHT22;42175;46.930;9.532;2023-01-10T12:43:39;22.80;37.60
56268;DHT22;42175;46.930;9.532;2023-01-10T12:46:32;22.80;37.30
56268;DHT22;42175;46.930;9.532;2023-01-10T12:49:12;22.80;37.20
56268;DHT22;42175;46.930;9.532;2023-01-10T12:51:42;22.80;37.60
56268;DHT22;42175;46.930;9.532;2023-01-10T12:54:17;22.80;37.20
56268;DHT22;42175;46.930;9.532;2023-01-10T12:56:45;22.60;33.50
56268;DHT22;42175;46.930;9.532;2023-01-10T12:59:23;22.40;35.30
56268;DHT22;42175;46.930;9.532;2023-01-10T13:01:56;22.50;36.10
56268;DHT22;42175;46.930;9.532;2023-01-10T13:04:27;22.60;36.10
56268;DHT22;42175;46.930;9.532;2023-01-10T13:06:55;22.60;35.90
56268;DHT22;42175;46.930;9.532;2023-01-10T13:09:25;22.60;35.90
56268;DHT22;42175;46.930;9.532;2023-01-10T13:14:45;22.70;36.10
56268;DHT22;42175;46.930;9.532;2023-01-10T13:19:40;22.70;36.10
56268;DHT22;42175;46.930;9.532;2023-01-10T13:22:22;22.70;36.00
56268;DHT22;42175;46.930;9.532;2023-01-10T13:24:57;22.70;35.70
56268;DHT22;42175;46.930;9.532;2023-01-10T13:27:28;22.60;35.70
56268;DHT22;42175;46.930;9.532;2023-01-10T13:29:54;22.60;35.80
56268;DHT22;42175;46.930;9.532;2023-01-10T13:32:23;22.60;35.70
56268;DHT22;42175;46.930;9.532;2023-01-10T13:34:50;22.70;35.60
56268;DHT22;42175;46.930;9.532;2023-01-10T13:37:26;22.70;35.90
56268;DHT22;42175;46.930;9.532;2023-01-10T13:39:59;22.70;35.70
56268;DHT22;42175;46.930;9.532;2023-01-10T14:01:25;22.60;35.30
56268;DHT22;42175;46.930;9.532;2023-01-10T14:06:55;22.60;35.00
56268;DHT22;42175;46.930;9.532;2023-01-10T14:11:52;22.60;34.90
56268;DHT22;42175;46.930;9.532;2023-01-10T14:14:34;22.60;34.90
56268;DHT22;42175;46.930;9.532;2023-01-10T14:19:38;22.60;35.00
56268;DHT22;42175;46.930;9.532;2023-01-10T14:22:04;22.60;35.00
56268;DHT22;42175;46.930;9.532;2023-01-10T14:24:39;22.60;35.00
56268;DHT22;42175;46.930;9.532;2023-01-10T14:27:11;22.60;35.00
56268;DHT22;42175;46.930;9.532;2023-01-10T14:29:38;22.60;34.80
56268;DHT22;42175;46.930;9.532;2023-01-10T14:32:23;22.60;34.90
56268;DHT22;42175;46.930;9.532;2023-01-10T14:34:51;22.60;34.70
56268;DHT22;42175;46.930;9.532;2023-01-10T14:37:44;22.60;34.50
56268;DHT22;42175;46.930;9.532;2023-01-10T14:42:51;22.60;34.00
56268;DHT22;42175;46.930;9.532;2023-01-10T14:47:45;22.50;33.60
56268;DHT22;42175;46.930;9.532;2023-01-10T14:50:29;22.50;33.50
56268;DHT22;42175;46.930;9.532;2023-01-10T14:52:57;22.50;33.50
56268;DHT22;42175;46.930;9.532;2023-01-10T14:55:23;22.50;33.50
56268;DHT22;42175;46.930;9.532;2023-01-10T14:57:53;22.50;33.30
56268;DHT22;42175;46.930;9.532;2023-01-10T15:00:25;22.50;33.60
56268;DHT22;42175;46.930;9.532;2023-01-10T15:02:51;22.50;33.80
56268;DHT22;42175;46.930;9.532;2023-01-10T15:05:26;22.40;34.20
56268;DHT22;42175;46.930;9.532;2023-01-10T15:08:13;22.40;34.30
56268;DHT22;42175;46.930;9.532;2023-01-10T15:10:41;22.40;34.10
56268;DHT22;42175;46.930;9.532;2023-01-10T15:13:13;22.50;34.20
56268;DHT22;42175;46.930;9.532;2023-01-10T15:15:40;22.40;34.20
56268;DHT22;42175;46.930;9.532;2023-01-10T15:18:40;22.40;34.50
56268;DHT22;42175;46.930;9.532;2023-01-10T15:21:11;22.40;34.50
56268;DHT22;42175;46.930;9.532;2023-01-10T15:23:41;22.50;34.70
56268;DHT22;42175;46.930;9.532;2023-01-10T15:26:10;22.50;34.60
56268;DHT22;42175;46.930;9.532;2023-01-10T15:28:39;22.50;34.60
56268;DHT22;42175;46.930;9.532;2023-01-10T15:31:07;22.40;34.40
56268;DHT22;42175;46.930;9.532;2023-01-10T15:33:34;22.50;33.80
56268;DHT22;42175;46.930;9.532;2023-01-10T15:36:04;22.40;33.60
56268;DHT22;42175;46.930;9.532;2023-01-10T15:38:31;22.40;33.80
56268;DHT22;42175;46.930;9.532;2023-01-10T15:41:02;22.40;34.00
56268;DHT22;42175;46.930;9.532;2023-01-10T15:43:35;22.40;33.90
56268;DHT22;42175;46.930;9.532;2023-01-10T15:46:03;22.40;34.10
56268;DHT22;42175;46.930;9.532;2023-01-10T15:48:30;22.40;34.70
56268;DHT22;42175;46.930;9.532;2023-01-10T15:51:00;22.40;34.20
56268;DHT22;42175;46.930;9.532;2023-01-10T15:53:51;22.40;34.30
56268;DHT22;42175;46.930;9.532;2023-01-10T15:56:21;22.40;34.40
56268;DHT22;42175;46.930;9.532;2023-01-10T15:58:47;22.30;34.40
56268;DHT22;42175;46.930;9.532;2023-01-10T16:01:14;22.40;34.40
56268;DHT22;42175;46.930;9.532;2023-01-10T16:03:55;22.40;34.50
56268;DHT22;42175;46.930;9.532;2023-01-10T16:06:40;22.40;34.50
56268;DHT22;42175;46.930;9.532;2023-01-10T16:09:19;22.40;34.50
56268;DHT22;42175;46.930;9.532;2023-01-10T16:11:50;22.40;34.40
56268;DHT22;42175;46.930;9.532;2023-01-10T16:14:35;22.40;34.50
56268;DHT22;42175;46.930;9.532;2023-01-10T16:17:03;22.40;34.40
56268;DHT22;42175;46.930;9.532;2023-01-10T16:19:29;22.40;34.40
56268;DHT22;42175;46.930;9.532;2023-01-10T16:21:57;22.30;34.40
56268;DHT22;42175;46.930;9.532;2023-01-10T16:24:29;22.40;34.50
56268;DHT22;42175;46.930;9.532;2023-01-10T16:26:57;22.30;34.40
56268;DHT22;42175;46.930;9.532;2023-01-10T16:29:25;22.40;34.50
56268;DHT22;42175;46.930;9.532;2023-01-10T16:31:51;22.40;34.50
56268;DHT22;42175;46.930;9.532;2023-01-10T16:34:18;22.40;34.50
56268;DHT22;42175;46.930;9.532;2023-01-10T16:36:44;22.40;34.40
56268;DHT22;42175;46.930;9.532;2023-01-10T16:39:15;22.40;34.20
56268;DHT22;42175;46.930;9.532;2023-01-10T16:41:42;22.30;34.40
56268;DHT22;42175;46.930;9.532;2023-01-10T16:44:27;22.40;34.40
56268;DHT22;42175;46.930;9.532;2023-01-10T16:46:53;22.30;34.90
56268;DHT22;42175;46.930;9.532;2023-01-10T16:49:20;22.30;34.30
56268;DHT22;42175;46.930;9.532;2023-01-10T16:51:46;22.30;34.30
56268;DHT22;42175;46.930;9.532;2023-01-10T16:54:16;22.30;34.30
56268;DHT22;42175;46.930;9.532;2023-01-10T16:56:45;22.30;34.20
56268;DHT22;42175;46.930;9.532;2023-01-10T16:59:12;22.30;34.80
56268;DHT22;42175;46.930;9.532;2023-01-10T17:01:43;22.30;34.30
56268;DHT22;42175;46.930;9.532;2023-01-10T17:04:14;22.30;34.20
56268;DHT22;42175;46.930;9.532;2023-01-10T17:06:42;22.30;34.20
56268;DHT22;42175;46.930;9.532;2023-01-10T17:09:21;22.30;34.40
56268;DHT22;42175;46.930;9.532;2023-01-10T17:11:51;22.30;34.30
56268;DHT22;42175;46.930;9.532;2023-01-10T17:14:19;22.30;34.30
56268;DHT22;42175;46.930;9.532;2023-01-10T17:16:44;22.30;34.30
56268;DHT22;42175;46.930;9.532;2023-01-10T17:19:11;22.20;34.20
56268;DHT22;42175;46.930;9.532;2023-01-10T17:21:37;22.20;34.10
56268;DHT22;42175;46.930;9.532;2023-01-10T17:24:03;22.30;33.90
56268;DHT22;42175;46.930;9.532;2023-01-10T17:26:28;22.30;34.00
56268;DHT22;42175;46.930;9.532;2023-01-10T17:28:54;22.20;33.90
56268;DHT22;42175;46.930;9.532;2023-01-10T17:31:20;22.20;34.60
56268;DHT22;42175;46.930;9.532;2023-01-10T17:33:46;22.20;33.90
56268;DHT22;42175;46.930;9.532;2023-01-10T17:36:13;22.30;34.00
56268;DHT22;42175;46.930;9.532;2023-01-10T17:38:39;22.20;34.00
56268;DHT22;42175;46.930;9.532;2023-01-10T17:41:08;22.30;34.00
56268;DHT22;42175;46.930;9.532;2023-01-10T17:43:34;22.20;33.90
56268;DHT22;42175;46.930;9.532;2023-01-10T17:46:02;22.20;34.00
56268;DHT22;42175;46.930;9.532;2023-01-10T17:48:31;22.20;33.90
56268;DHT22;42175;46.930;9.532;2023-01-10T17:51:00;22.20;33.90
56268;DHT22;42175;46.930;9.532;2023-01-10T17:53:26;22.20;33.90
56268;DHT22;42175;46.930;9.532;2023-01-10T17:55:52;22.20;33.90
56268;DHT22;42175;46.930;9.532;2023-01-10T17:58:18;22.20;34.00
56268;DHT22;42175;46.930;9.532;2023-01-10T18:00:44;22.20;34.00
56268;DHT22;42175;46.930;9.532;2023-01-10T18:03:10;22.20;34.00
56268;DHT22;42175;46.930;9.532;2023-01-10T18:05:37;22.20;33.90
56268;DHT22;42175;46.930;9.532;2023-01-10T18:08:05;22.20;33.90
56268;DHT22;42175;46.930;9.532;2023-01-10T18:10:32;22.20;34.00
56268;DHT22;42175;46.930;9.532;2023-01-10T18:12:58;22.20;33.90
56268;DHT22;42175;46.930;9.532;2023-01-10T18:15:25;22.20;33.80
56268;DHT22;42175;46.930;9.532;2023-01-10T18:17:51;22.10;33.80
56268;DHT22;42175;46.930;9.532;2023-01-10T18:20:17;22.20;33.90
56268;DHT22;42175;46.930;9.532;2023-01-10T18:22:43;22.20;33.80
56268;DHT22;42175;46.930;9.532;2023-01-10T18:25:27;22.20;33.60
56268;DHT22;42175;46.930;9.532;2023-01-10T18:27:54;22.20;33.90
56268;DHT22;42175;46.930;9.532;2023-01-10T18:30:21;22.20;34.00
56268;DHT22;42175;46.930;9.532;2023-01-10T18:32:51;22.20;34.00
56268;DHT22;42175;46.930;9.532;2023-01-10T18:35:17;22.20;34.00
56268;DHT22;42175;46.930;9.532;2023-01-10T18:37:44;22.10;33.90
56268;DHT22;42175;46.930;9.532;2023-01-10T18:40:10;22.10;34.00
56268;DHT22;42175;46.930;9.532;2023-01-10T18:42:36;22.20;34.10
56268;DHT22;42175;46.930;9.532;2023-01-10T18:45:06;22.20;33.90
56268;DHT22;42175;46.930;9.532;2023-01-10T18:47:32;22.20;34.00
56268;DHT22;42175;46.930;9.532;2023-01-10T18:49:58;22.20;34.10
56268;DHT22;42175;46.930;9.532;2023-01-10T18:52:24;22.20;34.00
56268;DHT22;42175;46.930;9.532;2023-01-10T18:54:50;22.20;34.10
56268;DHT22;42175;46.930;9.532;2023-01-10T18:57:18;22.20;34.00
56268;DHT22;42175;46.930;9.532;2023-01-10T18:59:44;22.20;34.20
56268;DHT22;42175;46.930;9.532;2023-01-10T19:02:12;22.30;34.30
56268;DHT22;42175;46.930;9.532;2023-01-10T19:04:38;22.30;34.00
56268;DHT22;42175;46.930;9.532;2023-01-10T19:07:05;22.20;34.20
56268;DHT22;42175;46.930;9.532;2023-01-10T19:11:58;22.30;34.60
56268;DHT22;42175;46.930;9.532;2023-01-10T19:14:24;22.20;33.50
56268;DHT22;42175;46.930;9.532;2023-01-10T19:16:50;22.20;34.30
56268;DHT22;42175;46.930;9.532;2023-01-10T19:19:15;22.20;34.50
56268;DHT22;42175;46.930;9.532;2023-01-10T19:21:41;22.20;34.60
56268;DHT22;42175;46.930;9.532;2023-01-10T19:24:24;22.20;34.80
56268;DHT22;42175;46.930;9.532;2023-01-10T19:26:52;22.30;34.70
56268;DHT22;42175;46.930;9.532;2023-01-10T19:29:18;22.30;34.90
56268;DHT22;42175;46.930;9.532;2023-01-10T19:31:44;22.20;34.80
56268;DHT22;42175;46.930;9.532;2023-01-10T19:34:12;22.20;34.90
56268;DHT22;42175;46.930;9.532;2023-01-10T19:36:39;22.30;35.20
56268;DHT22;42175;46.930;9.532;2023-01-10T19:39:07;22.30;35.20
56268;DHT22;42175;46.930;9.532;2023-01-10T19:41:34;22.30;35.50
56268;DHT22;42175;46.930;9.532;2023-01-10T19:44:03;22.30;35.70
56268;DHT22;42175;46.930;9.532;2023-01-10T19:46:30;22.40;35.70
56268;DHT22;42175;46.930;9.532;2023-01-10T19:48:59;22.40;35.60
56268;DHT22;42175;46.930;9.532;2023-01-10T19:51:28;22.40;35.50
56268;DHT22;42175;46.930;9.532;2023-01-10T19:53:53;22.40;35.50
56268;DHT22;42175;46.930;9.532;2023-01-10T19:56:19;22.40;35.50
56268;DHT22;42175;46.930;9.532;2023-01-10T19:58:47;22.40;35.70
56268;DHT22;42175;46.930;9.532;2023-01-10T20:01:19;22.40;35.70
56268;DHT22;42175;46.930;9.532;2023-01-10T20:03:44;22.40;35.60
56268;DHT22;42175;46.930;9.532;2023-01-10T20:06:13;22.40;35.90
56268;DHT22;42175;46.930;9.532;2023-01-10T20:08:44;22.40;36.10
56268;DHT22;42175;46.930;9.532;2023-01-10T20:11:10;22.40;36.20
56268;DHT22;42175;46.930;9.532;2023-01-10T20:13:38;22.40;36.10
56268;DHT22;42175;46.930;9.532;2023-01-10T20:16:09;22.40;35.90
56268;DHT22;42175;46.930;9.532;2023-01-10T20:18:35;22.40;35.80
56268;DHT22;42175;46.930;9.532;2023-01-10T20:21:04;22.50;35.90
56268;DHT22;42175;46.930;9.532;2023-01-10T20:23:33;22.40;35.80
56268;DHT22;42175;46.930;9.532;2023-01-10T20:26:12;22.40;35.60
56268;DHT22;42175;46.930;9.532;2023-01-10T20:28:39;22.40;35.70
56268;DHT22;42175;46.930;9.532;2023-01-10T20:31:14;22.40;35.70
56268;DHT22;42175;46.930;9.532;2023-01-10T20:33:40;22.40;35.70
56268;DHT22;42175;46.930;9.532;2023-01-10T20:36:09;22.40;36.30
56268;DHT22;42175;46.930;9.532;2023-01-10T20:38:36;22.40;35.30
56268;DHT22;42175;46.930;9.532;2023-01-10T20:41:11;22.40;35.70
56268;DHT22;42175;46.930;9.532;2023-01-10T20:43:37;22.40;35.70
56268;DHT22;42175;46.930;9.532;2023-01-10T20:46:07;22.40;35.70
56268;DHT22;42175;46.930;9.532;2023-01-10T20:48:35;22.40;35.70
56268;DHT22;42175;46.930;9.532;2023-01-10T20:51:02;22.40;35.70
56268;DHT22;42175;46.930;9.532;2023-01-10T20:53:27;22.40;35.60
56268;DHT22;42175;46.930;9.532;2023-01-10T20:55:53;22.40;35.70
56268;DHT22;42175;46.930;9.532;2023-01-10T20:58:19;22.40;35.60
56268;DHT22;42175;46.930;9.532;2023-01-10T21:00:44;22.40;35.60
56268;DHT22;42175;46.930;9.532;2023-01-10T21:03:10;22.50;35.70
56268;DHT22;42175;46.930;9.532;2023-01-10T21:05:35;22.40;35.60
56268;DHT22;42175;46.930;9.532;2023-01-10T21:08:02;22.40;35.70
56268;DHT22;42175;46.930;9.532;2023-01-10T21:10:28;22.40;35.70
56268;DHT22;42175;46.930;9.532;2023-01-10T21:12:54;22.40;35.70
56268;DHT22;42175;46.930;9.532;2023-01-10T21:15:20;22.40;35.60
56268;DHT22;42175;46.930;9.532;2023-01-10T21:17:49;22.40;35.60
56268;DHT22;42175;46.930;9.532;2023-01-10T21:20:14;22.40;35.60
56268;DHT22;42175;46.930;9.532;2023-01-10T21:22:40;22.40;35.60
56268;DHT22;42175;46.930;9.532;2023-01-10T21:25:06;22.40;35.70
56268;DHT22;42175;46.930;9.532;2023-01-10T21:27:32;22.40;35.70
56268;DHT22;42175;46.930;9.532;2023-01-10T21:29:57;22.40;35.70
56268;DHT22;42175;46.930;9.532;2023-01-10T21:32:23;22.40;35.90
56268;DHT22;42175;46.930;9.532;2023-01-10T21:34:49;22.40;36.00
56268;DHT22;42175;46.930;9.532;2023-01-10T21:37:15;22.40;36.10
56268;DHT22;42175;46.930;9.532;2023-01-10T21:39:40;22.40;36.00
56268;DHT22;42175;46.930;9.532;2023-01-10T21:42:11;22.40;35.90
56268;DHT22;42175;46.930;9.532;2023-01-10T21:44:55;22.40;36.10
56268;DHT22;42175;46.930;9.532;2023-01-10T21:47:21;22.40;36.00
56268;DHT22;42175;46.930;9.532;2023-01-10T21:49:47;22.40;36.00
56268;DHT22;42175;46.930;9.532;2023-01-10T21:52:13;22.40;36.00
56268;DHT22;42175;46.930;9.532;2023-01-10T21:54:38;22.50;36.10
56268;DHT22;42175;46.930;9.532;2023-01-10T21:57:04;22.40;36.10
56268;DHT22;42175;46.930;9.532;2023-01-10T21:59:30;22.50;36.20
56268;DHT22;42175;46.930;9.532;2023-01-10T22:01:55;22.50;36.20
56268;DHT22;42175;46.930;9.532;2023-01-10T22:04:21;22.50;36.10
56268;DHT22;42175;46.930;9.532;2023-01-10T22:06:46;22.50;36.10
56268;DHT22;42175;46.930;9.532;2023-01-10T22:09:12;22.50;36.10
56268;DHT22;42175;46.930;9.532;2023-01-10T22:11:38;22.50;36.10
56268;DHT22;42175;46.930;9.532;2023-01-10T22:14:04;22.50;36.10
56268;DHT22;42175;46.930;9.532;2023-01-10T22:16:29;22.50;36.10
56268;DHT22;42175;46.930;9.532;2023-01-10T22:18:56;22.40;36.10
56268;DHT22;42175;46.930;9.532;2023-01-10T22:21:22;22.40;36.10
56268;DHT22;42175;46.930;9.532;2023-01-10T22:23:48;22.50;36.20
56268;DHT22;42175;46.930;9.532;2023-01-10T22:26:14;22.50;36.20
56268;DHT22;42175;46.930;9.532;2023-01-10T22:28:40;22.50;36.10
56268;DHT22;42175;46.930;9.532;2023-01-10T22:31:06;22.50;36.10
56268;DHT22;42175;46.930;9.532;2023-01-10T22:33:34;22.50;36.10
56268;DHT22;42175;46.930;9.532;2023-01-10T22:36:04;22.50;36.20
56268;DHT22;42175;46.930;9.532;2023-01-10T22:38:30;22.50;36.20
56268;DHT22;42175;46.930;9.532;2023-01-10T22:41:07;22.50;36.20
56268;DHT22;42175;46.930;9.532;2023-01-10T22:43:33;22.50;36.10
56268;DHT22;42175;46.930;9.532;2023-01-10T22:45:59;22.50;36.20
56268;DHT22;42175;46.930;9.532;2023-01-10T22:48:25;22.50;36.20
56268;DHT22;42175;46.930;9.532;2023-01-10T22:50:50;22.50;36.10
56268;DHT22;42175;46.930;9.532;2023-01-10T22:53:16;22.40;36.10
56268;DHT22;42175;46.930;9.532;2023-01-10T22:55:42;22.50;36.20
56268;DHT22;42175;46.930;9.532;2023-01-10T22:58:07;22.50;36.20
56268;DHT22;42175;46.930;9.532;2023-01-10T23:00:33;22.50;36.10
56268;DHT22;42175;46.930;9.532;2023-01-10T23:02:59;22.50;36.00
56268;DHT22;42175;46.930;9.532;2023-01-10T23:05:24;22.50;36.00
56268;DHT22;42175;46.930;9.532;2023-01-10T23:07:51;22.50;36.30
56268;DHT22;42175;46.930;9.532;2023-01-10T23:10:16;22.60;36.50
56268;DHT22;42175;46.930;9.532;2023-01-10T23:12:42;22.70;36.50
56268;DHT22;42175;46.930;9.532;2023-01-10T23:15:08;22.70;36.60
56268;DHT22;42175;46.930;9.532;2023-01-10T23:17:34;22.70;36.60
56268;DHT22;42175;46.930;9.532;2023-01-10T23:19:59;22.70;36.60
56268;DHT22;42175;46.930;9.532;2023-01-10T23:22:25;22.70;36.60
56268;DHT22;42175;46.930;9.532;2023-01-10T23:24:51;22.70;36.60
56268;DHT22;42175;46.930;9.532;2023-01-10T23:27:17;22.70;36.70
56268;DHT22;42175;46.930;9.532;2023-01-10T23:29:43;22.70;36.70
56268;DHT22;42175;46.930;9.532;2023-01-10T23:32:09;22.80;36.90
56268;DHT22;42175;46.930;9.532;2023-01-10T23:34:35;22.70;36.10
56268;DHT22;42175;46.930;9.532;2023-01-10T23:37:01;22.60;36.50
56268;DHT22;42175;46.930;9.532;2023-01-10T23:39:27;22.60;37.30
56268;DHT22;42175;46.930;9.532;2023-01-10T23:41:53;22.60;36.70
56268;DHT22;42175;46.930;9.532;2023-01-10T23:44:19;22.60;36.70
56268;DHT22;42175;46.930;9.532;2023-01-10T23:46:44;22.60;36.60
56268;DHT22;42175;46.930;9.532;2023-01-10T23:49:10;22.60;36.70
56268;DHT22;42175;46.930;9.532;2023-01-10T23:51:36;22.60;36.70
56268;DHT22;42175;46.930;9.532;2023-01-10T23:54:02;22.60;36.90
56268;DHT22;42175;46.930;9.532;2023-01-10T23:56:28;22.60;36.80
56268;DHT22;42175;46.930;9.532;2023-01-10T23:58:54;22.60;36.80
